sensor_id;sensor_type;location;lat;lon;timestamp;temperature;humidity
24224;DHT22;12359;49.716;9.212;2023-08-07T00:00:07;13.80;22.30
24224;DHT22;12359;49.716;9.212;2023-08-07T00:02:35;13.90;27.50
24224;DHT22;12359;49.716;9.212;2023-08-07T00:05:00;13.90;30.10
24224;DHT22;12359;49.716;9.212;2023-08-07T00:07:26;13.80;29.50
24224;DHT22;12359;49.716;9.212;2023-08-07T00:09:52;13.80;29.10
24224;DHT22;12359;49.716;9.212;2023-08-07T00:12:17;13.80;28.90
24224;DHT22;12359;49.716;9.212;2023-08-07T00:14:43;13.80;24.90
24224;DHT22;12359;49.716;9.212;2023-08-07T00:17:09;13.80;26.20
24224;DHT22;12359;49.716;9.212;2023-08-07T00:19:34;13.80;28.40
24224;DHT22;12359;49.716;9.212;2023-08-07T00:22:00;13.80;29.10
24224;DHT22;12359;49.716;9.212;2023-08-07T00:24:26;13.80;26.80
24224;DHT22;12359;49.716;9.212;2023-08-07T00:26:51;13.80;24.30
24224;DHT22;12359;49.716;9.212;2023-08-07T00:29:17;13.80;28.60
24224;DHT22;12359;49.716;9.212;2023-08-07T00:31:43;13.70;23.80
24224;DHT22;12359;49.716;9.212;2023-08-07T00:34:08;13.70;31.10
24224;DHT22;12359;49.716;9.212;2023-08-07T00:36:35;13.70;30.00
24224;DHT22;12359;49.716;9.212;2023-08-07T00:39:01;13.70;28.50
24224;DHT22;12359;49.716;9.212;2023-08-07T00:41:29;13.70;28.60
24224;DHT22;12359;49.716;9.212;2023-08-07T00:43:55;13.70;29.10
24224;DHT22;12359;49.716;9.212;2023-08-07T00:46:20;13.70;29.00
24224;DHT22;12359;49.716;9.212;2023-08-07T00:48:47;13.70;30.20
24224;DHT22;12359;49.716;9.212;2023-08-07T00:51:12;13.70;27.70
24224;DHT22;12359;49.716;9.212;2023-08-07T00:53:39;13.70;27.30
24224;DHT22;12359;49.716;9.212;2023-08-07T00:56:05;13.70;29.50
24224;DHT22;12359;49.716;9.212;2023-08-07T00:58:32;13.60;27.30
24224;DHT22;12359;49.716;9.212;2023-08-07T01:00:58;13.60;27.30
24224;DHT22;12359;49.716;9.212;2023-08-07T01:03:24;13.70;28.30
24224;DHT22;12359;49.716;9.212;2023-08-07T01:05:50;13.70;28.00
24224;DHT22;12359;49.716;9.212;2023-08-07T01:08:16;13.70;28.10
24224;DHT22;12359;49.716;9.212;2023-08-07T01:16:36;13.60;28.50
24224;DHT22;12359;49.716;9.212;2023-08-07T01:19:03;13.60;20.30
24224;DHT22;12359;49.716;9.212;2023-08-07T01:21:32;13.60;17.90
24224;DHT22;12359;49.716;9.212;2023-08-07T01:23:58;13.60;25.50
24224;DHT22;12359;49.716;9.212;2023-08-07T01:26:23;13.60;23.40
24224;DHT22;12359;49.716;9.212;2023-08-07T01:28:58;13.60;28.60
24224;DHT22;12359;49.716;9.212;2023-08-07T01:31:29;13.60;24.20
24224;DHT22;12359;49.716;9.212;2023-08-07T01:34:03;13.60;25.10
24224;DHT22;12359;49.716;9.212;2023-08-07T01:36:29;13.60;24.50
24224;DHT22;12359;49.716;9.212;2023-08-07T01:39:00;13.60;26.60
24224;DHT22;12359;49.716;9.212;2023-08-07T01:41:27;13.60;22.20
24224;DHT22;12359;49.716;9.212;2023-08-07T01:43:54;13.60;21.20
24224;DHT22;12359;49.716;9.212;2023-08-07T01:46:20;13.50;23.50
24224;DHT22;12359;49.716;9.212;2023-08-07T01:48:45;13.50;21.40
24224;DHT22;12359;49.716;9.212;2023-08-07T01:51:11;13.60;25.80
24224;DHT22;12359;49.716;9.212;2023-08-07T01:53:37;13.60;27.50
24224;DHT22;12359;49.716;9.212;2023-08-07T01:56:03;13.60;27.50
24224;DHT22;12359;49.716;9.212;2023-08-07T01:58:28;13.60;35.00
24224;DHT22;12359;49.716;9.212;2023-08-07T02:00:54;13.50;26.80
24224;DHT22;12359;49.716;9.212;2023-08-07T02:03:20;13.50;29.40
24224;DHT22;12359;49.716;9.212;2023-08-07T02:05:46;13.50;19.50
24224;DHT22;12359;49.716;9.212;2023-08-07T02:08:12;13.50;16.90
24224;DHT22;12359;49.716;9.212;2023-08-07T02:10:38;13.50;17.60
24224;DHT22;12359;49.716;9.212;2023-08-07T02:13:03;13.50;25.50
24224;DHT22;12359;49.716;9.212;2023-08-07T02:15:29;13.50;23.30
24224;DHT22;12359;49.716;9.212;2023-08-07T02:17:55;13.50;24.90
24224;DHT22;12359;49.716;9.212;2023-08-07T02:20:20;13.50;23.20
24224;DHT22;12359;49.716;9.212;2023-08-07T02:22:46;13.50;20.90
24224;DHT22;12359;49.716;9.212;2023-08-07T02:25:12;13.50;16.60
24224;DHT22;12359;49.716;9.212;2023-08-07T02:27:38;13.50;19.90
24224;DHT22;12359;49.716;9.212;2023-08-07T02:30:04;13.40;14.40
24224;DHT22;12359;49.716;9.212;2023-08-07T02:32:31;13.50;18.60
24224;DHT22;12359;49.716;9.212;2023-08-07T02:34:56;13.40;6.70
24224;DHT22;12359;49.716;9.212;2023-08-07T02:37:22;13.40;20.30
24224;DHT22;12359;49.716;9.212;2023-08-07T02:39:48;13.40;19.20
24224;DHT22;12359;49.716;9.212;2023-08-07T02:42:13;13.40;21.10
24224;DHT22;12359;49.716;9.212;2023-08-07T02:44:39;13.30;25.60
24224;DHT22;12359;49.716;9.212;2023-08-07T02:47:06;13.30;25.00
24224;DHT22;12359;49.716;9.212;2023-08-07T02:50:01;13.30;29.80
24224;DHT22;12359;49.716;9.212;2023-08-07T02:52:26;13.30;22.80
24224;DHT22;12359;49.716;9.212;2023-08-07T02:54:52;13.30;20.90
24224;DHT22;12359;49.716;9.212;2023-08-07T02:57:18;13.30;18.50
24224;DHT22;12359;49.716;9.212;2023-08-07T02:59:43;13.30;15.60
24224;DHT22;12359;49.716;9.212;2023-08-07T03:02:09;13.20;17.60
24224;DHT22;12359;49.716;9.212;2023-08-07T03:04:35;13.30;20.70
24224;DHT22;12359;49.716;9.212;2023-08-07T03:07:00;13.30;15.40
24224;DHT22;12359;49.716;9.212;2023-08-07T03:09:26;13.30;17.80
24224;DHT22;12359;49.716;9.212;2023-08-07T03:11:52;13.30;12.30
24224;DHT22;12359;49.716;9.212;2023-08-07T03:14:17;13.20;1.00
24224;DHT22;12359;49.716;9.212;2023-08-07T03:16:45;13.30;7.70
24224;DHT22;12359;49.716;9.212;2023-08-07T03:19:10;13.30;1.00
24224;DHT22;12359;49.716;9.212;2023-08-07T03:21:36;13.30;5.40
24224;DHT22;12359;49.716;9.212;2023-08-07T03:24:02;13.40;6.30
24224;DHT22;12359;49.716;9.212;2023-08-07T03:26:27;13.40;6.50
24224;DHT22;12359;49.716;9.212;2023-08-07T03:28:53;13.30;1.00
24224;DHT22;12359;49.716;9.212;2023-08-07T03:31:18;13.30;1.00
24224;DHT22;12359;49.716;9.212;2023-08-07T03:33:44;13.40;3.90
24224;DHT22;12359;49.716;9.212;2023-08-07T03:36:10;13.40;1.00
24224;DHT22;12359;49.716;9.212;2023-08-07T03:38:36;13.30;1.00
24224;DHT22;12359;49.716;9.212;2023-08-07T03:41:01;13.30;4.40
24224;DHT22;12359;49.716;9.212;2023-08-07T03:43:27;13.30;7.20
24224;DHT22;12359;49.716;9.212;2023-08-07T03:45:56;13.30;7.10
24224;DHT22;12359;49.716;9.212;2023-08-07T03:48:24;13.30;10.80
24224;DHT22;12359;49.716;9.212;2023-08-07T03:50:50;13.30;8.80
24224;DHT22;12359;49.716;9.212;2023-08-07T03:53:16;13.20;1.00
24224;DHT22;12359;49.716;9.212;2023-08-07T03:55:41;13.20;7.50
24224;DHT22;12359;49.716;9.212;2023-08-07T03:58:08;13.20;2.10
24224;DHT22;12359;49.716;9.212;2023-08-07T04:00:34;13.30;1.00
24224;DHT22;12359;49.716;9.212;2023-08-07T04:02:59;13.20;1.00
24224;DHT22;12359;49.716;9.212;2023-08-07T04:05:25;13.20;3.80
24224;DHT22;12359;49.716;9.212;2023-08-07T04:07:50;13.30;6.90
24224;DHT22;12359;49.716;9.212;2023-08-07T04:10:16;13.30;4.90
24224;DHT22;12359;49.716;9.212;2023-08-07T04:12:42;13.30;1.00
24224;DHT22;12359;49.716;9.212;2023-08-07T04:15:08;13.20;1.60
24224;DHT22;12359;49.716;9.212;2023-08-07T04:17:35;13.20;1.00
24224;DHT22;12359;49.716;9.212;2023-08-07T04:20:01;13.20;1.00
24224;DHT22;12359;49.716;9.212;2023-08-07T04:22:29;13.20;1.00
24224;DHT22;12359;49.716;9.212;2023-08-07T04:24:54;13.30;4.10
24224;DHT22;12359;49.716;9.212;2023-08-07T04:27:20;13.30;1.00
24224;DHT22;12359;49.716;9.212;2023-08-07T04:29:46;13.30;1.00
24224;DHT22;12359;49.716;9.212;2023-08-07T04:32:11;13.30;1.00
24224;DHT22;12359;49.716;9.212;2023-08-07T04:34:37;13.30;1.00
24224;DHT22;12359;49.716;9.212;2023-08-07T04:37:03;13.30;1.00
24224;DHT22;12359;49.716;9.212;2023-08-07T04:39:28;13.30;1.00
24224;DHT22;12359;49.716;9.212;2023-08-07T04:41:54;13.30;1.00
24224;DHT22;12359;49.716;9.212;2023-08-07T04:44:20;13.30;1.00
24224;DHT22;12359;49.716;9.212;2023-08-07T04:46:45;13.20;1.00
24224;DHT22;12359;49.716;9.212;2023-08-07T04:49:12;13.20;1.00
24224;DHT22;12359;49.716;9.212;2023-08-07T04:51:37;13.20;1.00
24224;DHT22;12359;49.716;9.212;2023-08-07T04:54:03;13.30;1.00
24224;DHT22;12359;49.716;9.212;2023-08-07T04:56:29;13.30;1.00
24224;DHT22;12359;49.716;9.212;2023-08-07T04:58:56;13.30;1.00
24224;DHT22;12359;49.716;9.212;2023-08-07T05:01:22;13.40;1.00
24224;DHT22;12359;49.716;9.212;2023-08-07T05:03:47;13.40;1.00
24224;DHT22;12359;49.716;9.212;2023-08-07T05:06:13;13.40;1.00
24224;DHT22;12359;49.716;9.212;2023-08-07T05:08:39;13.40;1.00
24224;DHT22;12359;49.716;9.212;2023-08-07T05:11:04;13.40;1.00
24224;DHT22;12359;49.716;9.212;2023-08-07T05:13:30;13.40;1.00
24224;DHT22;12359;49.716;9.212;2023-08-07T05:15:56;13.40;1.00
24224;DHT22;12359;49.716;9.212;2023-08-07T05:18:21;13.40;1.00
24224;DHT22;12359;49.716;9.212;2023-08-07T05:20:47;13.40;1.00
24224;DHT22;12359;49.716;9.212;2023-08-07T05:23:13;13.40;1.00
24224;DHT22;12359;49.716;9.212;2023-08-07T05:25:38;13.50;1.00
24224;DHT22;12359;49.716;9.212;2023-08-07T05:28:04;13.50;1.00
24224;DHT22;12359;49.716;9.212;2023-08-07T05:30:30;13.50;1.00
24224;DHT22;12359;49.716;9.212;2023-08-07T05:32:56;13.50;1.00
24224;DHT22;12359;49.716;9.212;2023-08-07T05:35:22;13.50;1.00
24224;DHT22;12359;49.716;9.212;2023-08-07T05:37:48;13.50;1.00
24224;DHT22;12359;49.716;9.212;2023-08-07T05:40:13;13.50;1.00
24224;DHT22;12359;49.716;9.212;2023-08-07T05:42:39;13.40;1.00
24224;DHT22;12359;49.716;9.212;2023-08-07T05:45:06;13.50;1.00
24224;DHT22;12359;49.716;9.212;2023-08-07T05:47:33;13.50;1.00
24224;DHT22;12359;49.716;9.212;2023-08-07T05:49:59;13.50;1.00
24224;DHT22;12359;49.716;9.212;2023-08-07T05:52:24;13.50;1.00
24224;DHT22;12359;49.716;9.212;2023-08-07T05:54:50;13.60;1.00
24224;DHT22;12359;49.716;9.212;2023-08-07T05:57:17;13.60;1.00
24224;DHT22;12359;49.716;9.212;2023-08-07T05:59:43;13.70;1.00
24224;DHT22;12359;49.716;9.212;2023-08-07T06:02:09;13.70;1.00
24224;DHT22;12359;49.716;9.212;2023-08-07T06:04:37;13.70;1.00
24224;DHT22;12359;49.716;9.212;2023-08-07T06:07:03;13.80;1.00
24224;DHT22;12359;49.716;9.212;2023-08-07T06:09:28;13.80;1.00
24224;DHT22;12359;49.716;9.212;2023-08-07T06:11:54;13.90;1.00
24224;DHT22;12359;49.716;9.212;2023-08-07T06:14:20;13.90;1.00
24224;DHT22;12359;49.716;9.212;2023-08-07T06:16:45;14.00;1.00
24224;DHT22;12359;49.716;9.212;2023-08-07T06:19:11;14.10;1.00
24224;DHT22;12359;49.716;9.212;2023-08-07T06:21:37;14.10;1.00
24224;DHT22;12359;49.716;9.212;2023-08-07T06:24:02;14.10;1.00
24224;DHT22;12359;49.716;9.212;2023-08-07T06:26:28;14.10;1.00
24224;DHT22;12359;49.716;9.212;2023-08-07T06:28:54;14.20;1.00
24224;DHT22;12359;49.716;9.212;2023-08-07T06:31:19;14.30;1.00
24224;DHT22;12359;49.716;9.212;2023-08-07T06:33:45;14.30;1.00
24224;DHT22;12359;49.716;9.212;2023-08-07T06:36:11;14.30;1.00
24224;DHT22;12359;49.716;9.212;2023-08-07T06:38:37;14.30;1.00
24224;DHT22;12359;49.716;9.212;2023-08-07T06:41:03;14.30;1.00
24224;DHT22;12359;49.716;9.212;2023-08-07T06:43:28;14.30;1.00
24224;DHT22;12359;49.716;9.212;2023-08-07T06:45:55;14.40;1.00
24224;DHT22;12359;49.716;9.212;2023-08-07T06:48:21;14.40;1.00
24224;DHT22;12359;49.716;9.212;2023-08-07T06:50:48;14.50;1.00
24224;DHT22;12359;49.716;9.212;2023-08-07T06:53:14;14.60;1.00
24224;DHT22;12359;49.716;9.212;2023-08-07T06:55:43;14.70;99.90
24224;DHT22;12359;49.716;9.212;2023-08-07T06:58:09;14.70;99.90
24224;DHT22;12359;49.716;9.212;2023-08-07T07:00:36;14.70;99.90
24224;DHT22;12359;49.716;9.212;2023-08-07T07:03:02;14.80;99.90
24224;DHT22;12359;49.716;9.212;2023-08-07T07:05:28;14.80;99.90
24224;DHT22;12359;49.716;9.212;2023-08-07T07:07:54;14.80;99.90
24224;DHT22;12359;49.716;9.212;2023-08-07T07:10:20;14.80;99.90
24224;DHT22;12359;49.716;9.212;2023-08-07T07:12:46;14.80;99.90
24224;DHT22;12359;49.716;9.212;2023-08-07T07:15:12;14.70;99.90
24224;DHT22;12359;49.716;9.212;2023-08-07T07:17:37;14.80;99.90
24224;DHT22;12359;49.716;9.212;2023-08-07T07:20:03;14.80;99.90
24224;DHT22;12359;49.716;9.212;2023-08-07T07:22:29;14.90;99.90
24224;DHT22;12359;49.716;9.212;2023-08-07T07:24:55;14.90;99.90
24224;DHT22;12359;49.716;9.212;2023-08-07T07:27:21;14.80;99.90
24224;DHT22;12359;49.716;9.212;2023-08-07T07:29:48;14.90;99.90
24224;DHT22;12359;49.716;9.212;2023-08-07T07:32:14;14.90;1.00
24224;DHT22;12359;49.716;9.212;2023-08-07T07:34:40;14.90;99.90
24224;DHT22;12359;49.716;9.212;2023-08-07T07:37:05;14.90;99.90
24224;DHT22;12359;49.716;9.212;2023-08-07T07:39:31;14.90;99.90
24224;DHT22;12359;49.716;9.212;2023-08-07T07:41:57;14.80;1.00
24224;DHT22;12359;49.716;9.212;2023-08-07T07:44:22;14.90;1.00
24224;DHT22;12359;49.716;9.212;2023-08-07T07:46:48;14.90;1.00
24224;DHT22;12359;49.716;9.212;2023-08-07T07:49:14;14.80;1.00
24224;DHT22;12359;49.716;9.212;2023-08-07T07:51:40;14.80;1.00
24224;DHT22;12359;49.716;9.212;2023-08-07T07:54:06;14.90;1.00
24224;DHT22;12359;49.716;9.212;2023-08-07T07:56:32;14.80;1.00
24224;DHT22;12359;49.716;9.212;2023-08-07T07:58:57;14.80;1.00
24224;DHT22;12359;49.716;9.212;2023-08-07T08:01:23;14.80;1.00
24224;DHT22;12359;49.716;9.212;2023-08-07T08:03:49;14.80;1.00
24224;DHT22;12359;49.716;9.212;2023-08-07T08:06:14;14.70;1.00
24224;DHT22;12359;49.716;9.212;2023-08-07T08:08:42;14.60;1.00
24224;DHT22;12359;49.716;9.212;2023-08-07T08:11:08;14.60;1.00
24224;DHT22;12359;49.716;9.212;2023-08-07T08:13:34;14.60;1.00
24224;DHT22;12359;49.716;9.212;2023-08-07T08:16:04;14.70;1.00
24224;DHT22;12359;49.716;9.212;2023-08-07T08:18:30;14.60;1.00
24224;DHT22;12359;49.716;9.212;2023-08-07T08:20:56;14.70;1.00
24224;DHT22;12359;49.716;9.212;2023-08-07T08:23:22;14.70;99.90
24224;DHT22;12359;49.716;9.212;2023-08-07T08:25:48;14.80;1.00
24224;DHT22;12359;49.716;9.212;2023-08-07T08:28:14;14.70;1.00
24224;DHT22;12359;49.716;9.212;2023-08-07T08:30:40;14.80;1.00
24224;DHT22;12359;49.716;9.212;2023-08-07T08:33:05;15.00;1.00
24224;DHT22;12359;49.716;9.212;2023-08-07T08:35:31;15.00;1.00
24224;DHT22;12359;49.716;9.212;2023-08-07T08:37:57;15.10;1.00
24224;DHT22;12359;49.716;9.212;2023-08-07T08:40:24;15.20;99.90
24224;DHT22;12359;49.716;9.212;2023-08-07T08:42:50;15.20;99.90
24224;DHT22;12359;49.716;9.212;2023-08-07T08:45:19;15.30;99.90
24224;DHT22;12359;49.716;9.212;2023-08-07T08:47:46;15.30;99.90
24224;DHT22;12359;49.716;9.212;2023-08-07T08:50:14;15.40;99.90
24224;DHT22;12359;49.716;9.212;2023-08-07T08:52:43;15.30;99.90
24224;DHT22;12359;49.716;9.212;2023-08-07T08:55:10;15.40;99.90
24224;DHT22;12359;49.716;9.212;2023-08-07T08:57:37;15.40;99.90
24224;DHT22;12359;49.716;9.212;2023-08-07T09:00:05;15.40;99.90
24224;DHT22;12359;49.716;9.212;2023-08-07T09:02:47;15.50;99.90
24224;DHT22;12359;49.716;9.212;2023-08-07T09:05:14;15.50;99.90
24224;DHT22;12359;49.716;9.212;2023-08-07T09:07:41;15.60;99.90
24224;DHT22;12359;49.716;9.212;2023-08-07T09:10:09;15.70;99.90
24224;DHT22;12359;49.716;9.212;2023-08-07T09:12:36;15.60;1.00
24224;DHT22;12359;49.716;9.212;2023-08-07T09:15:05;15.60;50.00
24224;DHT22;12359;49.716;9.212;2023-08-07T09:17:37;15.70;20.80
24224;DHT22;12359;49.716;9.212;2023-08-07T09:20:04;15.80;99.50
24224;DHT22;12359;49.716;9.212;2023-08-07T09:22:31;15.90;99.90
24224;DHT22;12359;49.716;9.212;2023-08-07T09:24:57;15.90;99.90
24224;DHT22;12359;49.716;9.212;2023-08-07T09:27:25;15.90;99.90
24224;DHT22;12359;49.716;9.212;2023-08-07T09:29:51;15.80;99.90
24224;DHT22;12359;49.716;9.212;2023-08-07T09:32:19;15.80;99.90
24224;DHT22;12359;49.716;9.212;2023-08-07T09:34:49;15.70;99.90
24224;DHT22;12359;49.716;9.212;2023-08-07T09:37:16;15.60;1.00
24224;DHT22;12359;49.716;9.212;2023-08-07T09:39:41;15.60;22.70
24224;DHT22;12359;49.716;9.212;2023-08-07T09:42:14;15.70;45.40
24224;DHT22;12359;49.716;9.212;2023-08-07T09:44:43;15.70;1.00
24224;DHT22;12359;49.716;9.212;2023-08-07T09:47:17;15.80;1.00
24224;DHT22;12359;49.716;9.212;2023-08-07T09:49:44;15.80;1.00
24224;DHT22;12359;49.716;9.212;2023-08-07T09:52:12;15.90;1.00
24224;DHT22;12359;49.716;9.212;2023-08-07T09:54:41;15.90;1.00
24224;DHT22;12359;49.716;9.212;2023-08-07T09:57:07;16.00;99.90
24224;DHT22;12359;49.716;9.212;2023-08-07T09:59:33;15.90;1.00
24224;DHT22;12359;49.716;9.212;2023-08-07T10:02:02;16.00;1.00
24224;DHT22;12359;49.716;9.212;2023-08-07T10:04:28;16.20;99.90
24224;DHT22;12359;49.716;9.212;2023-08-07T10:06:54;16.20;99.90
24224;DHT22;12359;49.716;9.212;2023-08-07T10:09:21;16.20;99.90
24224;DHT22;12359;49.716;9.212;2023-08-07T10:11:47;16.40;99.90
24224;DHT22;12359;49.716;9.212;2023-08-07T10:14:14;16.50;99.90
24224;DHT22;12359;49.716;9.212;2023-08-07T10:16:41;16.50;99.90
24224;DHT22;12359;49.716;9.212;2023-08-07T10:19:10;16.50;99.90
24224;DHT22;12359;49.716;9.212;2023-08-07T10:21:38;16.30;99.90
24224;DHT22;12359;49.716;9.212;2023-08-07T10:24:05;16.20;99.90
24224;DHT22;12359;49.716;9.212;2023-08-07T10:26:33;16.30;99.90
24224;DHT22;12359;49.716;9.212;2023-08-07T10:29:01;16.30;99.90
24224;DHT22;12359;49.716;9.212;2023-08-07T10:31:29;16.30;99.90
24224;DHT22;12359;49.716;9.212;2023-08-07T10:33:55;16.30;99.90
24224;DHT22;12359;49.716;9.212;2023-08-07T10:36:21;16.20;1.00
24224;DHT22;12359;49.716;9.212;2023-08-07T10:38:50;16.30;1.00
24224;DHT22;12359;49.716;9.212;2023-08-07T10:41:19;16.10;99.90
24224;DHT22;12359;49.716;9.212;2023-08-07T10:43:46;16.10;1.00
24224;DHT22;12359;49.716;9.212;2023-08-07T10:46:19;16.00;41.80
24224;DHT22;12359;49.716;9.212;2023-08-07T10:48:46;15.90;6.20
24224;DHT22;12359;49.716;9.212;2023-08-07T10:51:17;15.90;99.90
24224;DHT22;12359;49.716;9.212;2023-08-07T10:53:43;15.90;99.90
24224;DHT22;12359;49.716;9.212;2023-08-07T10:56:34;15.80;3.70
24224;DHT22;12359;49.716;9.212;2023-08-07T10:59:09;15.90;81.10
24224;DHT22;12359;49.716;9.212;2023-08-07T11:04:09;15.90;52.30
24224;DHT22;12359;49.716;9.212;2023-08-07T11:06:37;16.00;56.20
24224;DHT22;12359;49.716;9.212;2023-08-07T11:09:05;16.10;99.90
24224;DHT22;12359;49.716;9.212;2023-08-07T11:11:42;16.10;22.40
24224;DHT22;12359;49.716;9.212;2023-08-07T11:16:38;16.40;27.70
24224;DHT22;12359;49.716;9.212;2023-08-07T11:19:05;16.40;1.00
24224;DHT22;12359;49.716;9.212;2023-08-07T11:21:31;16.40;1.00
24224;DHT22;12359;49.716;9.212;2023-08-07T11:23:58;16.30;1.00
24224;DHT22;12359;49.716;9.212;2023-08-07T11:26:24;16.30;1.00
24224;DHT22;12359;49.716;9.212;2023-08-07T11:28:54;16.20;1.00
24224;DHT22;12359;49.716;9.212;2023-08-07T11:31:21;16.20;99.90
24224;DHT22;12359;49.716;9.212;2023-08-07T11:33:50;16.20;1.00
24224;DHT22;12359;49.716;9.212;2023-08-07T11:36:16;16.20;23.50
24224;DHT22;12359;49.716;9.212;2023-08-07T11:38:44;16.20;42.90
24224;DHT22;12359;49.716;9.212;2023-08-07T11:41:17;16.30;1.00
24224;DHT22;12359;49.716;9.212;2023-08-07T11:43:43;16.30;1.00
24224;DHT22;12359;49.716;9.212;2023-08-07T11:46:11;16.30;1.00
24224;DHT22;12359;49.716;9.212;2023-08-07T11:48:40;16.30;75.40
24224;DHT22;12359;49.716;9.212;2023-08-07T11:51:06;16.40;57.90
24224;DHT22;12359;49.716;9.212;2023-08-07T11:53:37;16.40;73.50
24224;DHT22;12359;49.716;9.212;2023-08-07T11:56:07;16.50;84.50
24224;DHT22;12359;49.716;9.212;2023-08-07T11:58:42;16.40;61.20
24224;DHT22;12359;49.716;9.212;2023-08-07T12:01:15;16.40;1.00
24224;DHT22;12359;49.716;9.212;2023-08-07T12:03:49;16.40;1.00
24224;DHT22;12359;49.716;9.212;2023-08-07T12:06:15;16.40;99.90
24224;DHT22;12359;49.716;9.212;2023-08-07T12:08:41;16.40;99.90
24224;DHT22;12359;49.716;9.212;2023-08-07T12:11:09;16.40;27.90
24224;DHT22;12359;49.716;9.212;2023-08-07T12:13:42;16.30;1.00
24224;DHT22;12359;49.716;9.212;2023-08-07T12:16:08;16.30;99.90
24224;DHT22;12359;49.716;9.212;2023-08-07T12:18:35;16.20;1.00
24224;DHT22;12359;49.716;9.212;2023-08-07T12:21:05;16.20;75.50
24224;DHT22;12359;49.716;9.212;2023-08-07T12:23:36;16.10;52.60
24224;DHT22;12359;49.716;9.212;2023-08-07T12:26:03;16.10;99.90
24224;DHT22;12359;49.716;9.212;2023-08-07T12:28:29;16.20;99.90
24224;DHT22;12359;49.716;9.212;2023-08-07T12:30:56;16.30;99.90
24224;DHT22;12359;49.716;9.212;2023-08-07T12:33:21;16.30;99.90
24224;DHT22;12359;49.716;9.212;2023-08-07T12:35:47;16.30;99.90
24224;DHT22;12359;49.716;9.212;2023-08-07T12:38:13;16.20;98.40
24224;DHT22;12359;49.716;9.212;2023-08-07T12:40:40;16.10;1.00
24224;DHT22;12359;49.716;9.212;2023-08-07T12:43:06;16.10;99.90
24224;DHT22;12359;49.716;9.212;2023-08-07T12:45:33;16.10;19.90
24224;DHT22;12359;49.716;9.212;2023-08-07T12:47:59;16.00;99.90
24224;DHT22;12359;49.716;9.212;2023-08-07T12:50:26;16.00;1.00
24224;DHT22;12359;49.716;9.212;2023-08-07T12:52:51;16.10;99.90
24224;DHT22;12359;49.716;9.212;2023-08-07T12:55:17;16.20;99.90
24224;DHT22;12359;49.716;9.212;2023-08-07T12:57:43;16.20;99.90
24224;DHT22;12359;49.716;9.212;2023-08-07T13:00:10;16.30;99.90
24224;DHT22;12359;49.716;9.212;2023-08-07T13:02:46;16.30;99.90
24224;DHT22;12359;49.716;9.212;2023-08-07T13:05:13;16.30;99.90
24224;DHT22;12359;49.716;9.212;2023-08-07T13:07:41;16.30;99.90
24224;DHT22;12359;49.716;9.212;2023-08-07T13:10:08;16.30;99.90
24224;DHT22;12359;49.716;9.212;2023-08-07T13:12:38;16.40;99.90
24224;DHT22;12359;49.716;9.212;2023-08-07T13:15:06;16.30;1.00
24224;DHT22;12359;49.716;9.212;2023-08-07T13:17:32;16.40;99.90
24224;DHT22;12359;49.716;9.212;2023-08-07T13:19:59;16.50;29.80
24224;DHT22;12359;49.716;9.212;2023-08-07T13:22:25;16.40;1.00
24224;DHT22;12359;49.716;9.212;2023-08-07T13:24:51;16.60;99.90
24224;DHT22;12359;49.716;9.212;2023-08-07T13:27:17;16.80;1.00
24224;DHT22;12359;49.716;9.212;2023-08-07T13:29:43;17.20;99.90
24224;DHT22;12359;49.716;9.212;2023-08-07T13:32:09;17.50;1.00
24224;DHT22;12359;49.716;9.212;2023-08-07T13:34:35;17.60;99.90
24224;DHT22;12359;49.716;9.212;2023-08-07T13:37:02;17.80;99.90
24224;DHT22;12359;49.716;9.212;2023-08-07T13:39:28;17.90;99.90
24224;DHT22;12359;49.716;9.212;2023-08-07T13:41:54;17.90;99.90
24224;DHT22;12359;49.716;9.212;2023-08-07T13:44:20;18.00;99.90
24224;DHT22;12359;49.716;9.212;2023-08-07T13:46:46;18.10;99.90
24224;DHT22;12359;49.716;9.212;2023-08-07T13:49:13;18.20;99.90
24224;DHT22;12359;49.716;9.212;2023-08-07T13:51:40;18.20;99.90
24224;DHT22;12359;49.716;9.212;2023-08-07T13:54:05;18.30;1.00
24224;DHT22;12359;49.716;9.212;2023-08-07T13:56:31;18.40;99.90
24224;DHT22;12359;49.716;9.212;2023-08-07T13:58:57;18.60;57.80
24224;DHT22;12359;49.716;9.212;2023-08-07T14:01:22;18.60;1.00
24224;DHT22;12359;49.716;9.212;2023-08-07T14:03:48;18.80;99.90
24224;DHT22;12359;49.716;9.212;2023-08-07T14:06:14;19.00;79.20
24224;DHT22;12359;49.716;9.212;2023-08-07T14:08:40;19.30;99.90
24224;DHT22;12359;49.716;9.212;2023-08-07T14:11:06;19.50;99.90
24224;DHT22;12359;49.716;9.212;2023-08-07T14:13:31;19.50;1.00
24224;DHT22;12359;49.716;9.212;2023-08-07T14:15:57;19.60;1.00
24224;DHT22;12359;49.716;9.212;2023-08-07T14:18:23;19.90;1.00
24224;DHT22;12359;49.716;9.212;2023-08-07T14:20:48;20.00;64.60
24224;DHT22;12359;49.716;9.212;2023-08-07T14:23:14;20.00;99.90
24224;DHT22;12359;49.716;9.212;2023-08-07T14:25:40;20.40;1.00
24224;DHT22;12359;49.716;9.212;2023-08-07T14:28:05;20.70;99.90
24224;DHT22;12359;49.716;9.212;2023-08-07T14:30:33;20.90;99.90
24224;DHT22;12359;49.716;9.212;2023-08-07T14:32:59;20.90;67.80
24224;DHT22;12359;49.716;9.212;2023-08-07T14:35:24;20.90;1.00
24224;DHT22;12359;49.716;9.212;2023-08-07T14:37:50;20.80;1.00
24224;DHT22;12359;49.716;9.212;2023-08-07T14:40:16;20.60;99.90
24224;DHT22;12359;49.716;9.212;2023-08-07T14:42:41;20.80;1.00
24224;DHT22;12359;49.716;9.212;2023-08-07T14:45:08;20.80;1.00
24224;DHT22;12359;49.716;9.212;2023-08-07T14:47:33;20.80;99.90
24224;DHT22;12359;49.716;9.212;2023-08-07T14:49:59;21.00;99.90
24224;DHT22;12359;49.716;9.212;2023-08-07T14:52:25;21.20;99.90
24224;DHT22;12359;49.716;9.212;2023-08-07T14:54:50;21.40;99.90
24224;DHT22;12359;49.716;9.212;2023-08-07T14:57:18;21.20;1.00
24224;DHT22;12359;49.716;9.212;2023-08-07T14:59:44;21.00;46.70
24224;DHT22;12359;49.716;9.212;2023-08-07T15:02:09;20.80;75.70
24224;DHT22;12359;49.716;9.212;2023-08-07T15:04:35;20.70;53.30
24224;DHT22;12359;49.716;9.212;2023-08-07T15:07:01;20.70;92.90
24224;DHT22;12359;49.716;9.212;2023-08-07T15:09:26;20.80;98.50
24224;DHT22;12359;49.716;9.212;2023-08-07T15:11:52;20.80;99.90
24224;DHT22;12359;49.716;9.212;2023-08-07T15:14:18;20.80;37.30
24224;DHT22;12359;49.716;9.212;2023-08-07T15:16:44;20.70;21.60
24224;DHT22;12359;49.716;9.212;2023-08-07T15:19:09;20.70;18.50
24224;DHT22;12359;49.716;9.212;2023-08-07T15:21:35;20.70;47.00
24224;DHT22;12359;49.716;9.212;2023-08-07T15:24:01;20.70;33.70
24224;DHT22;12359;49.716;9.212;2023-08-07T15:26:26;20.50;3.40
24224;DHT22;12359;49.716;9.212;2023-08-07T15:28:52;20.50;1.00
24224;DHT22;12359;49.716;9.212;2023-08-07T15:31:18;20.40;1.00
24224;DHT22;12359;49.716;9.212;2023-08-07T15:33:43;20.40;1.00
24224;DHT22;12359;49.716;9.212;2023-08-07T15:36:17;20.40;1.00
24224;DHT22;12359;49.716;9.212;2023-08-07T15:38:43;20.30;1.00
24224;DHT22;12359;49.716;9.212;2023-08-07T15:41:10;20.30;1.00
24224;DHT22;12359;49.716;9.212;2023-08-07T15:43:36;20.30;1.00